Time;durP1;ratioP1;P1;durP2;ratioP2;P2;SDS_P1;SDS_P2;PMS_P1;PMS_P2;Temp;Humidity;BMP_temperature;BMP_pressure;BME280_temperature;BME280_humidity;BME280_pressure;Samples;Min_cycle;Max_cycle;Signal;HPM_P1;HPM_P2
2022/07/06 05:00:39;;;;;;;5.30;3.53;;;19.50;97.20;;;;;;1727233;28;20554;-72
2022/07/06 05:01:29;;;;;;;6.85;3.70;;;19.50;97.20;;;;;;1727716;28;20205;-73
2022/07/06 05:02:21;;;;;;;3.40;3.10;;;19.50;97.20;;;;;;1727656;28;20283;-74
2022/07/06 05:03:12;;;;;;;3.92;3.38;;;19.60;97.20;;;;;;1727881;28;20603;-73
2022/07/06 05:04:04;;;;;;;4.20;3.73;;;19.50;97.20;;;;;;1727738;28;20280;-73
2022/07/06 05:04:55;;;;;;;3.60;3.28;;;19.50;97.20;;;;;;1727704;28;20228;-72
2022/07/06 05:05:47;;;;;;;4.53;3.67;;;19.50;97.20;;;;;;1727684;28;20304;-72
2022/07/06 05:06:37;;;;;;;3.75;3.45;;;19.50;97.20;;;;;;1727291;28;20212;-72
2022/07/06 05:07:30;;;;;;;6.83;3.20;;;19.50;97.20;;;;;;1727696;28;20207;-72
2022/07/06 05:08:21;;;;;;;4.35;3.95;;;19.50;97.20;;;;;;1727411;28;20458;-72
2022/07/06 05:09:13;;;;;;;4.23;3.83;;;19.50;97.20;;;;;;1727178;28;20228;-71
2022/07/06 05:10:05;;;;;;;4.25;3.85;;;19.50;97.20;;;;;;1727465;28;20452;-71
2022/07/06 05:10:57;;;;;;;5.95;3.45;;;19.50;97.20;;;;;;1727676;28;20208;-72
2022/07/06 05:11:48;;;;;;;4.18;3.80;;;19.50;97.20;;;;;;1727653;28;20734;-72
2022/07/06 05:12:40;;;;;;;6.20;3.47;;;19.50;97.20;;;;;;1727589;28;20200;-72
2022/07/06 05:13:31;;;;;;;4.47;3.67;;;19.60;97.20;;;;;;1727621;28;20204;-72
2022/07/06 05:14:23;;;;;;;4.93;3.33;;;19.60;97.20;;;;;;1727589;28;20211;-72
2022/07/06 05:15:13;;;;;;;3.67;3.38;;;19.60;97.20;;;;;;1727678;28;20204;-72
2022/07/06 05:16:07;;;;;;;4.20;3.87;;;19.60;97.20;;;;;;1727449;28;20228;-71
2022/07/06 05:16:58;;;;;;;4.30;3.90;;;19.60;97.20;;;;;;1727234;28;20439;-72
2022/07/06 05:17:49;;;;;;;5.67;3.60;;;19.60;97.20;;;;;;1727654;28;20202;-72
2022/07/06 05:18:40;;;;;;;6.68;4.40;;;19.60;97.20;;;;;;1727168;28;20204;-71
2022/07/06 05:19:32;;;;;;;5.03;3.93;;;19.60;97.20;;;;;;1727527;28;20291;-71
2022/07/06 05:20:23;;;;;;;5.22;4.00;;;19.60;97.20;;;;;;1727531;28;20574;-71
2022/07/06 05:21:15;;;;;;;4.03;3.73;;;19.60;97.20;;;;;;1726889;28;20283;-71
2022/07/06 05:22:05;;;;;;;5.53;4.20;;;19.60;97.20;;;;;;1727568;28;20208;-72
2022/07/06 05:22:57;;;;;;;4.10;3.70;;;19.70;97.20;;;;;;1727587;28;20224;-71
2022/07/06 05:23:48;;;;;;;4.88;3.63;;;19.70;97.20;;;;;;1727543;28;20209;-71
2022/07/06 05:24:40;;;;;;;6.63;4.10;;;19.70;97.20;;;;;;1727555;28;20231;-72
2022/07/06 05:25:32;;;;;;;7.68;3.80;;;19.70;97.20;;;;;;1727468;28;20212;-72
2022/07/06 05:26:24;;;;;;;5.22;3.80;;;19.70;97.20;;;;;;1727445;28;20300;-72
2022/07/06 05:27:15;;;;;;;4.15;3.75;;;19.70;97.20;;;;;;1727289;28;20723;-71
2022/07/06 05:28:06;;;;;;;4.30;3.57;;;19.70;97.20;;;;;;1727442;28;20671;-72
2022/07/06 05:28:57;;;;;;;4.57;3.97;;;19.70;97.20;;;;;;1727584;28;20205;-71
2022/07/06 05:29:49;;;;;;;4.00;3.70;;;19.70;97.20;;;;;;1727574;28;20193;-71
2022/07/06 05:30:40;;;;;;;4.15;3.85;;;19.70;97.20;;;;;;1727258;28;20212;-70
2022/07/06 05:31:33;;;;;;;4.47;3.70;;;19.70;97.20;;;;;;1727035;28;20752;-71
2022/07/06 05:32:23;;;;;;;3.88;3.58;;;19.70;97.20;;;;;;1727533;28;20211;-72
2022/07/06 05:33:15;;;;;;;5.40;4.00;;;19.70;97.20;;;;;;1727553;28;20238;-71
2022/07/06 05:34:06;;;;;;;4.03;3.35;;;19.70;97.20;;;;;;1727503;28;20659;-71
2022/07/06 05:34:58;;;;;;;4.27;3.97;;;19.80;97.20;;;;;;1727607;28;20572;-71
2022/07/06 05:35:49;;;;;;;4.22;3.83;;;19.70;97.20;;;;;;1727411;28;20236;-71
2022/07/06 05:36:40;;;;;;;4.13;3.73;;;19.80;97.20;;;;;;1727310;28;20243;-72
2022/07/06 05:37:31;;;;;;;4.65;3.75;;;19.70;97.20;;;;;;1727290;28;20473;-71
2022/07/06 05:38:23;;;;;;;4.70;4.20;;;19.80;97.20;;;;;;1727456;28;20295;-71
2022/07/06 05:39:18;;;;;;;5.25;4.20;;;19.80;97.20;;;;;;1727464;28;20211;-71
2022/07/06 05:40:12;;;;;;;4.05;3.50;;;19.70;97.20;;;;;;1727532;28;20272;-71
2022/07/06 05:41:02;;;;;;;5.18;4.03;;;19.70;97.20;;;;;;1727561;28;20215;-71
2022/07/06 05:41:54;;;;;;;4.97;3.90;;;19.70;97.20;;;;;;1727513;28;20203;-71
2022/07/06 05:42:45;;;;;;;3.63;3.33;;;19.70;97.20;;;;;;1727503;28;20672;-71
2022/07/06 05:43:37;;;;;;;7.40;4.40;;;19.80;97.20;;;;;;1727483;28;20212;-72
2022/07/06 05:44:28;;;;;;;4.10;3.80;;;19.80;97.20;;;;;;1727485;28;20691;-72
2022/07/06 05:45:19;;;;;;;3.67;3.23;;;19.80;97.20;;;;;;1727090;28;20593;-71
2022/07/06 05:46:10;;;;;;;5.85;3.60;;;19.80;97.20;;;;;;1727356;28;20447;-71
2022/07/06 05:50:28;;;;;;;5.15;3.65;;;20.00;97.20;;;;;;1720646;28;20684;-70
2022/07/06 05:51:19;;;;;;;4.65;3.95;;;20.00;97.20;;;;;;1721390;28;20209;-71
2022/07/06 05:52:11;;;;;;;5.90;3.53;;;20.00;97.20;;;;;;1726966;28;20291;-71
2022/07/06 05:53:04;;;;;;;6.88;3.30;;;20.00;97.20;;;;;;1727221;28;20204;-71
2022/07/06 05:53:55;;;;;;;5.97;3.28;;;20.00;97.20;;;;;;1723711;28;20192;-71
2022/07/06 05:54:46;;;;;;;4.00;3.60;;;20.00;97.20;;;;;;1727176;28;20197;-71
2022/07/06 05:55:38;;;;;;;4.07;3.77;;;20.10;97.20;;;;;;1726521;28;20219;-71
2022/07/06 05:56:28;;;;;;;3.50;3.20;;;20.10;97.20;;;;;;1727246;28;20200;-71
2022/07/06 05:57:20;;;;;;;3.57;3.27;;;20.10;97.20;;;;;;1726720;28;20332;-71
2022/07/06 05:58:11;;;;;;;6.30;3.55;;;20.10;97.20;;;;;;1727142;28;20212;-71
2022/07/06 05:59:03;;;;;;;4.00;3.50;;;20.10;97.20;;;;;;1727245;28;20292;-70
2022/07/06 05:59:53;;;;;;;4.95;3.42;;;20.20;97.20;;;;;;1727167;28;20310;-70
2022/07/06 06:00:45;;;;;;;4.87;3.60;;;20.20;97.20;;;;;;1727260;28;20268;-72
2022/07/06 06:01:36;;;;;;;3.65;3.35;;;20.20;97.20;;;;;;1726684;28;20200;-71
2022/07/06 06:02:37;;;;;;;4.50;4.10;;;20.20;97.20;;;;;;1726225;28;20284;-72
2022/07/06 06:03:28;;;;;;;4.25;3.60;;;20.30;97.20;;;;;;1727146;28;20219;-71
2022/07/06 06:04:20;;;;;;;3.87;3.50;;;20.30;97.20;;;;;;1727497;28;20291;-71
2022/07/06 06:05:13;;;;;;;4.70;3.90;;;20.30;97.20;;;;;;1727241;28;20231;-71
2022/07/06 06:06:05;;;;;;;3.30;3.10;;;20.30;97.20;;;;;;1727217;28;20220;-72
2022/07/06 06:06:55;;;;;;;6.40;3.45;;;20.30;97.20;;;;;;1727093;28;20263;-71
2022/07/06 06:07:48;;;;;;;3.60;3.27;;;20.30;97.20;;;;;;1727308;28;20200;-71
2022/07/06 06:08:38;;;;;;;4.05;3.53;;;20.40;97.20;;;;;;1727313;28;20288;-72
2022/07/06 06:09:30;;;;;;;3.47;3.27;;;20.40;97.20;;;;;;1727301;28;20299;-71
2022/07/06 06:10:21;;;;;;;6.60;3.95;;;20.40;97.20;;;;;;1727304;28;20238;-72
2022/07/06 06:11:13;;;;;;;5.78;3.53;;;20.40;97.20;;;;;;1727387;28;20208;-72
2022/07/06 06:12:04;;;;;;;4.20;3.45;;;20.40;97.20;;;;;;1727430;28;20614;-71
2022/07/06 06:12:56;;;;;;;5.75;3.47;;;20.40;97.20;;;;;;1727389;28;20200;-72
2022/07/06 06:13:47;;;;;;;3.10;2.53;;;20.50;97.20;;;;;;1727267;28;20231;-71
2022/07/06 06:14:39;;;;;;;6.37;3.90;;;20.50;97.20;;;;;;1727409;28;20200;-71
2022/07/06 06:15:29;;;;;;;4.00;3.60;;;20.50;97.20;;;;;;1726249;28;20299;-72
2022/07/06 06:16:23;;;;;;;3.30;3.00;;;20.50;97.20;;;;;;1727287;28;20201;-71
2022/07/06 06:17:14;;;;;;;3.75;3.13;;;20.50;97.20;;;;;;1727031;28;20208;-71
2022/07/06 06:18:07;;;;;;;3.73;3.43;;;20.50;97.20;;;;;;1720492;28;20279;-71
2022/07/06 06:18:58;;;;;;;4.25;3.40;;;20.60;97.20;;;;;;1720549;28;20204;-71
2022/07/06 06:19:50;;;;;;;4.10;3.60;;;20.60;97.20;;;;;;1720501;28;20197;-71
2022/07/06 06:20:40;;;;;;;4.53;3.15;;;20.60;97.20;;;;;;1720651;28;20209;-72
2022/07/06 06:21:32;;;;;;;5.90;3.13;;;20.60;97.20;;;;;;1721966;28;20296;-71
2022/07/06 06:22:23;;;;;;;5.32;3.25;;;20.60;97.20;;;;;;1727214;28;20209;-71
2022/07/06 06:23:15;;;;;;;3.90;3.40;;;20.60;97.20;;;;;;1727255;28;20283;-71
2022/07/06 06:24:07;;;;;;;5.40;2.95;;;20.60;97.20;;;;;;1727192;28;20440;-71
2022/07/06 06:24:59;;;;;;;3.60;2.95;;;20.70;97.20;;;;;;1727199;28;20224;-71
2022/07/06 06:25:49;;;;;;;3.67;2.80;;;20.70;97.20;;;;;;1727076;28;20711;-72
2022/07/06 06:26:42;;;;;;;4.13;3.20;;;20.70;97.20;;;;;;1726653;28;20267;-72
2022/07/06 06:27:33;;;;;;;3.10;2.90;;;20.70;97.20;;;;;;1726187;28;20576;-72
2022/07/06 06:28:25;;;;;;;3.50;3.20;;;20.80;97.20;;;;;;1722161;28;20223;-72
2022/07/06 06:29:16;;;;;;;4.20;3.25;;;20.80;97.20;;;;;;1726914;28;20215;-72
2022/07/06 06:30:09;;;;;;;4.87;3.30;;;20.80;97.20;;;;;;1726719;28;20284;-72
2022/07/06 06:30:59;;;;;;;3.10;2.80;;;20.90;97.20;;;;;;1726595;28;20196;-72
2022/07/06 06:31:51;;;;;;;4.07;3.13;;;20.90;97.20;;;;;;1728369;28;20311;-71
2022/07/06 06:32:42;;;;;;;4.82;3.67;;;20.90;97.20;;;;;;1728472;28;20201;-71
2022/07/06 06:33:35;;;;;;;3.47;3.17;;;20.90;97.20;;;;;;1728457;28;20208;-72
2022/07/06 06:34:26;;;;;;;4.43;3.00;;;20.90;97.20;;;;;;1728367;28;20336;-72
2022/07/06 06:35:18;;;;;;;6.80;3.00;;;21.00;97.20;;;;;;1728441;28;20254;-71
2022/07/06 06:36:09;;;;;;;3.72;2.80;;;21.00;97.20;;;;;;1728339;28;20454;-71
2022/07/06 06:37:01;;;;;;;4.70;3.10;;;21.00;97.20;;;;;;1728210;28;20200;-71
2022/07/06 06:37:52;;;;;;;4.07;3.17;;;21.00;97.20;;;;;;1728208;28;20200;-71
2022/07/06 06:38:44;;;;;;;5.17;3.00;;;21.10;97.20;;;;;;1728490;28;20231;-72
2022/07/06 06:39:34;;;;;;;3.15;2.83;;;21.10;97.20;;;;;;1728431;28;20207;-71
2022/07/06 06:40:26;;;;;;;3.57;3.27;;;21.10;97.20;;;;;;1728490;28;20727;-71
2022/07/06 06:41:18;;;;;;;3.42;3.03;;;21.10;97.20;;;;;;1727940;28;20200;-72
2022/07/06 06:42:10;;;;;;;3.50;3.20;;;21.10;97.20;;;;;;1728236;28;20209;-72
2022/07/06 06:43:00;;;;;;;4.05;2.80;;;21.20;97.20;;;;;;1727950;28;20215;-72
2022/07/06 06:43:52;;;;;;;3.20;2.60;;;21.20;97.20;;;;;;1727714;28;20283;-70
2022/07/06 06:44:43;;;;;;;4.10;2.75;;;21.20;97.20;;;;;;1728221;28;20560;-71
2022/07/06 06:45:35;;;;;;;3.50;2.73;;;21.20;97.20;;;;;;1728210;28;20661;-71
2022/07/06 06:46:25;;;;;;;5.75;3.22;;;21.30;97.20;;;;;;1728437;28;20204;-71
2022/07/06 06:47:19;;;;;;;4.83;2.70;;;21.30;97.20;;;;;;1728267;28;20192;-71
2022/07/06 06:48:09;;;;;;;5.03;2.70;;;21.30;97.20;;;;;;1728326;28;20262;-70
2022/07/06 06:49:02;;;;;;;5.00;2.97;;;21.30;97.20;;;;;;1728408;28;20258;-71
2022/07/06 06:49:53;;;;;;;3.80;3.00;;;21.30;97.20;;;;;;1728393;28;20201;-70
2022/07/06 06:50:45;;;;;;;2.80;2.60;;;21.30;97.20;;;;;;1725817;28;20235;-71
2022/07/06 06:51:37;;;;;;;4.05;2.78;;;21.40;97.20;;;;;;1724912;28;20540;-71
2022/07/06 06:52:29;;;;;;;4.50;3.58;;;21.40;97.20;;;;;;1725631;28;20203;-71
2022/07/06 06:53:19;;;;;;;3.70;2.83;;;21.40;97.20;;;;;;1724452;28;20193;-71
2022/07/06 06:54:11;;;;;;;5.20;2.97;;;21.40;97.20;;;;;;1724304;28;20197;-71
2022/07/06 06:55:03;;;;;;;3.30;2.70;;;21.40;97.20;;;;;;1725427;28;20447;-70
2022/07/06 06:55:54;;;;;;;3.75;3.10;;;21.50;97.20;;;;;;1724691;28;20711;-71
2022/07/06 06:56:45;;;;;;;3.50;3.20;;;21.50;97.20;;;;;;1724037;28;20199;-71
2022/07/06 06:57:37;;;;;;;3.70;3.20;;;21.50;97.20;;;;;;1724743;28;20711;-71
2022/07/06 06:58:28;;;;;;;3.10;2.80;;;21.50;97.20;;;;;;1724257;28;20200;-70
2022/07/06 06:59:19;;;;;;;5.70;3.30;;;21.50;97.20;;;;;;1725281;28;20281;-71
2022/07/06 07:00:12;;;;;;;4.15;2.65;;;21.60;97.20;;;;;;1725467;28;20679;-71
2022/07/06 07:01:04;;;;;;;5.75;3.35;;;21.60;97.20;;;;;;1724311;28;20218;-71
2022/07/06 07:01:55;;;;;;;3.40;2.72;;;21.60;97.20;;;;;;1724720;28;20668;-71
2022/07/06 07:02:47;;;;;;;6.00;3.50;;;21.60;97.20;;;;;;1725618;28;20628;-71
2022/07/06 07:03:37;;;;;;;4.97;3.08;;;21.60;97.20;;;;;;1724738;28;20247;-71
2022/07/06 07:04:31;;;;;;;3.60;3.27;;;21.60;97.20;;;;;;1724239;28;20188;-71
2022/07/06 07:05:21;;;;;;;3.58;3.17;;;21.60;97.20;;;;;;1724180;28;20196;-71
2022/07/06 07:06:13;;;;;;;4.33;3.50;;;21.60;97.20;;;;;;1724304;28;20255;-71
2022/07/06 07:07:04;;;;;;;4.03;3.63;;;21.60;97.20;;;;;;1725299;28;20838;-71
2022/07/06 07:07:58;;;;;;;3.53;2.90;;;21.60;97.20;;;;;;1724803;28;20188;-71
2022/07/06 07:08:49;;;;;;;3.97;2.90;;;21.60;97.20;;;;;;1724115;28;20664;-71
2022/07/06 07:09:41;;;;;;;3.73;3.17;;;21.60;97.20;;;;;;1725431;28;20540;-71
2022/07/06 07:10:32;;;;;;;4.70;3.10;;;21.60;97.20;;;;;;1725199;28;20454;-71
2022/07/06 07:11:24;;;;;;;3.72;2.70;;;21.60;97.20;;;;;;1724186;28;20189;-72
2022/07/06 07:12:16;;;;;;;5.40;3.80;;;21.60;97.20;;;;;;1726416;28;20196;-71
2022/07/06 07:13:08;;;;;;;4.15;2.92;;;21.60;97.20;;;;;;1724118;28;20203;-71
2022/07/06 07:14:00;;;;;;;3.95;3.15;;;21.60;97.20;;;;;;1725312;28;20197;-71
2022/07/06 07:14:52;;;;;;;4.05;3.13;;;21.60;97.20;;;;;;1725467;28;20611;-71
2022/07/06 07:15:42;;;;;;;2.97;2.75;;;21.60;97.20;;;;;;1724052;28;20224;-71
2022/07/06 07:16:34;;;;;;;3.20;2.90;;;21.60;97.20;;;;;;1724199;28;20357;-72
2022/07/06 07:17:25;;;;;;;3.05;2.83;;;21.60;97.20;;;;;;1725419;28;20204;-71
2022/07/06 07:18:17;;;;;;;3.00;2.65;;;21.70;97.20;;;;;;1724446;28;20195;-71
2022/07/06 07:19:08;;;;;;;3.80;3.50;;;21.70;97.20;;;;;;1723991;28;20680;-71
2022/07/06 07:20:01;;;;;;;3.23;2.93;;;21.70;97.20;;;;;;1725263;28;20568;-70
2022/07/06 07:20:52;;;;;;;3.38;2.90;;;21.70;97.20;;;;;;1725182;28;20200;-71
2022/07/06 07:21:44;;;;;;;3.63;3.20;;;21.70;97.20;;;;;;1724108;28;20227;-71
2022/07/06 07:22:35;;;;;;;4.32;2.67;;;21.80;97.20;;;;;;1724582;28;20440;-71
2022/07/06 07:23:27;;;;;;;3.28;2.83;;;21.80;97.20;;;;;;1725371;28;20193;-71
2022/07/06 07:24:18;;;;;;;3.08;2.60;;;21.80;97.20;;;;;;1724295;28;20227;-72
2022/07/06 07:25:10;;;;;;;3.97;2.53;;;21.90;97.20;;;;;;1724024;28;20303;-71
2022/07/06 07:26:01;;;;;;;4.13;2.95;;;21.90;97.20;;;;;;1723975;28;20228;-70
2022/07/06 07:26:53;;;;;;;3.40;3.10;;;21.90;97.20;;;;;;1723844;28;20528;-71
2022/07/06 07:27:44;;;;;;;3.85;2.75;;;22.00;97.20;;;;;;1725390;28;20441;-71
2022/07/06 07:28:35;;;;;;;3.10;2.77;;;22.00;97.20;;;;;;1724652;28;20271;-71
2022/07/06 07:29:26;;;;;;;3.15;2.88;;;22.00;97.20;;;;;;1725377;28;20488;-71
2022/07/06 07:30:18;;;;;;;3.35;3.05;;;22.00;97.20;;;;;;1723962;28;20200;-71
2022/07/06 07:31:09;;;;;;;3.97;3.15;;;22.00;97.20;;;;;;1724064;28;20676;-71
2022/07/06 07:32:01;;;;;;;4.53;2.70;;;22.00;97.20;;;;;;1725352;28;20538;-71
2022/07/06 07:32:52;;;;;;;3.53;2.75;;;22.00;97.20;;;;;;1725019;28;20196;-71
2022/07/06 07:33:43;;;;;;;4.73;3.30;;;22.10;97.20;;;;;;1724036;28;20224;-71
2022/07/06 07:34:34;;;;;;;3.63;3.08;;;22.10;97.20;;;;;;1724388;28;20463;-71
2022/07/06 07:35:27;;;;;;;8.10;3.40;;;22.10;97.20;;;;;;1725318;28;20229;-70
2022/07/06 07:36:18;;;;;;;3.42;3.13;;;22.10;97.20;;;;;;1724188;28;20571;-71
2022/07/06 07:37:10;;;;;;;3.63;3.27;;;22.10;97.20;;;;;;1723732;28;20299;-71
2022/07/06 07:38:01;;;;;;;4.57;3.20;;;22.10;97.20;;;;;;1723974;28;20204;-71
2022/07/06 07:38:53;;;;;;;3.30;2.93;;;22.20;97.20;;;;;;1724148;28;20221;-71
2022/07/06 07:39:44;;;;;;;4.45;3.38;;;22.20;97.20;;;;;;1725441;28;20197;-71
2022/07/06 07:40:36;;;;;;;3.30;2.83;;;22.20;97.20;;;;;;1724592;28;20199;-71
2022/07/06 07:41:26;;;;;;;3.78;2.80;;;22.20;97.20;;;;;;1723949;28;20201;-71
2022/07/06 07:42:18;;;;;;;3.80;3.50;;;22.20;97.20;;;;;;1724762;28;20718;-71
2022/07/06 07:43:09;;;;;;;4.50;3.60;;;22.20;97.20;;;;;;1725124;28;20451;-71
2022/07/06 07:44:01;;;;;;;5.90;2.80;;;22.20;97.20;;;;;;1723996;28;20232;-71
2022/07/06 07:44:52;;;;;;;3.80;3.25;;;22.20;97.20;;;;;;1725350;28;20197;-70
2022/07/06 07:45:43;;;;;;;5.43;2.93;;;22.20;97.20;;;;;;1723816;28;20299;-71
2022/07/06 07:46:34;;;;;;;9.38;3.15;;;22.30;97.20;;;;;;1724100;28;20198;-71
2022/07/06 07:47:26;;;;;;;4.00;3.20;;;22.30;97.20;;;;;;1725405;28;20193;-70
2022/07/06 07:48:17;;;;;;;3.90;3.50;;;22.30;97.20;;;;;;1724289;28;20670;-71
2022/07/06 07:49:09;;;;;;;4.03;2.83;;;22.30;97.20;;;;;;1723945;28;20623;-71
2022/07/06 07:50:00;;;;;;;5.15;3.30;;;22.20;97.20;;;;;;1725094;28;20235;-71
2022/07/06 07:50:55;;;;;;;5.07;3.23;;;22.20;97.20;;;;;;1725079;28;20200;-71
2022/07/06 07:51:46;;;;;;;2.95;2.65;;;22.20;97.20;;;;;;1724008;28;20670;-71
2022/07/06 07:52:38;;;;;;;3.63;2.70;;;22.20;97.20;;;;;;1724735;28;20631;-71
2022/07/06 07:53:29;;;;;;;5.30;2.80;;;22.30;97.20;;;;;;1725245;28;20546;-71
2022/07/06 07:54:20;;;;;;;3.30;3.00;;;22.30;97.20;;;;;;1724004;28;20623;-71
2022/07/06 07:55:11;;;;;;;4.53;3.33;;;22.30;97.20;;;;;;1723892;28;20739;-71
2022/07/06 07:56:03;;;;;;;3.67;2.77;;;22.40;97.20;;;;;;1725076;28;20651;-71
2022/07/06 07:56:54;;;;;;;3.22;2.92;;;22.40;97.20;;;;;;1724752;28;20443;-71
2022/07/06 07:57:46;;;;;;;3.20;2.90;;;22.40;97.20;;;;;;1727318;28;20215;-72
2022/07/06 07:58:37;;;;;;;2.92;2.60;;;22.40;97.20;;;;;;1727293;28;20209;-71
2022/07/06 07:59:28;;;;;;;3.70;3.10;;;22.40;97.20;;;;;;1727444;28;20288;-70
2022/07/06 08:00:21;;;;;;;4.57;2.90;;;22.50;97.20;;;;;;1727332;28;20200;-70
2022/07/06 08:01:13;;;;;;;3.97;2.95;;;22.50;97.20;;;;;;1727192;28;20247;-71
2022/07/06 08:02:03;;;;;;;5.47;3.08;;;22.50;97.20;;;;;;1726584;28;20667;-70
2022/07/06 08:02:55;;;;;;;3.10;2.80;;;22.60;97.20;;;;;;1727274;28;20607;-71
2022/07/06 08:03:46;;;;;;;4.75;3.20;;;22.60;97.20;;;;;;1727189;28;20290;-71
2022/07/06 08:04:38;;;;;;;3.60;3.30;;;22.60;97.20;;;;;;1727300;28;20201;-71
2022/07/06 08:05:29;;;;;;;3.53;2.80;;;22.70;97.20;;;;;;1727131;28;20667;-71
2022/07/06 08:06:22;;;;;;;4.10;2.90;;;22.70;97.20;;;;;;1727192;28;20767;-71
2022/07/06 08:07:12;;;;;;;3.20;2.90;;;22.70;97.20;;;;;;1726922;28;20474;-71
2022/07/06 08:08:05;;;;;;;4.30;2.70;;;22.80;97.20;;;;;;1725151;28;20255;-73
2022/07/06 08:08:56;;;;;;;4.13;2.88;;;22.80;97.20;;;;;;1724603;28;20201;-71
2022/07/06 08:09:47;;;;;;;8.83;3.57;;;22.80;97.20;;;;;;1725140;28;20725;-70
2022/07/06 08:10:38;;;;;;;4.68;3.40;;;22.80;97.20;;;;;;1723932;28;20563;-71
2022/07/06 08:11:30;;;;;;;4.13;3.57;;;22.80;97.20;;;;;;1723891;28;21295;-70
2022/07/06 08:12:21;;;;;;;3.40;3.10;;;22.80;97.20;;;;;;1725082;28;20209;-71
2022/07/06 08:13:14;;;;;;;3.33;3.07;;;22.80;97.20;;;;;;1724652;28;20213;-70
2022/07/06 08:14:06;;;;;;;3.65;2.70;;;22.80;97.20;;;;;;1723728;28;20250;-71
2022/07/06 08:14:58;;;;;;;5.60;3.10;;;22.80;97.20;;;;;;1724677;28;20194;-71
2022/07/06 08:15:50;;;;;;;3.35;2.70;;;22.80;97.20;;;;;;1724874;28;20221;-70
2022/07/06 08:16:41;;;;;;;3.95;2.88;;;22.80;97.20;;;;;;1724988;28;20204;-70
2022/07/06 08:17:33;;;;;;;4.00;3.00;;;22.90;97.20;;;;;;1724585;28;20836;-71
2022/07/06 08:18:23;;;;;;;3.50;3.20;;;22.90;97.20;;;;;;1723693;28;20448;-71
2022/07/06 08:19:15;;;;;;;5.17;3.07;;;22.90;97.20;;;;;;1724309;28;20225;-71
2022/07/06 08:20:07;;;;;;;3.75;2.97;;;23.00;97.20;;;;;;1724947;28;20205;-70
2022/07/06 08:20:59;;;;;;;4.30;2.80;;;23.00;97.20;;;;;;1723840;28;20810;-70
2022/07/06 08:21:51;;;;;;;3.58;2.70;;;23.00;97.20;;;;;;1723753;28;20216;-71
2022/07/06 08:22:43;;;;;;;3.42;3.03;;;23.10;97.20;;;;;;1725072;28;20340;-71
2022/07/06 08:23:34;;;;;;;3.25;2.95;;;23.10;97.20;;;;;;1724352;28;20659;-70
2022/07/06 08:24:26;;;;;;;3.42;3.13;;;23.10;97.20;;;;;;1723663;28;20201;-71
2022/07/06 08:25:17;;;;;;;3.92;3.28;;;23.20;97.20;;;;;;1724501;28;20201;-71
2022/07/06 08:26:08;;;;;;;2.77;2.57;;;23.20;97.20;;;;;;1724901;28;20279;-71
2022/07/06 08:26:59;;;;;;;3.63;2.75;;;23.20;97.20;;;;;;1723307;28;20247;-71
2022/07/06 08:27:51;;;;;;;4.20;2.80;;;23.30;97.20;;;;;;1723649;28;20292;-70
2022/07/06 08:28:42;;;;;;;3.20;2.95;;;23.30;97.20;;;;;;1725075;28;20460;-70
2022/07/06 08:29:34;;;;;;;3.73;3.40;;;23.30;97.20;;;;;;1724571;28;20220;-70
2022/07/06 08:30:24;;;;;;;3.10;2.75;;;23.40;97.20;;;;;;1723699;28;20200;-71
2022/07/06 08:31:16;;;;;;;4.57;3.00;;;23.40;97.20;;;;;;1724271;28;20284;-71
2022/07/06 08:32:07;;;;;;;2.90;2.63;;;23.40;97.20;;;;;;1724963;28;20201;-71
2022/07/06 08:32:59;;;;;;;4.40;3.10;;;23.40;97.20;;;;;;1724263;28;20287;-71
2022/07/06 08:33:52;;;;;;;3.38;3.08;;;23.50;97.20;;;;;;1724808;28;20215;-71
2022/07/06 08:34:44;;;;;;;5.97;2.80;;;23.50;97.20;;;;;;1723641;28;20235;-72
2022/07/06 08:35:36;;;;;;;3.47;3.17;;;23.50;97.20;;;;;;1724284;28;20193;-71
2022/07/06 08:36:28;;;;;;;2.80;2.60;;;23.50;97.20;;;;;;1724973;28;20204;-71
2022/07/06 08:37:21;;;;;;;3.35;2.78;;;23.50;97.20;;;;;;1723299;28;20192;-71
2022/07/06 08:38:12;;;;;;;4.90;2.78;;;23.50;97.20;;;;;;1723840;28;20569;-71
2022/07/06 08:39:04;;;;;;;3.93;2.90;;;23.50;97.20;;;;;;1724968;28;20276;-71
2022/07/06 08:39:55;;;;;;;2.83;2.63;;;23.60;97.20;;;;;;1724078;28;20197;-70
2022/07/06 08:40:50;;;;;;;5.03;3.00;;;23.60;97.20;;;;;;1723570;28;20376;-71
2022/07/06 08:41:42;;;;;;;4.63;3.13;;;23.60;97.20;;;;;;1723650;28;20204;-71
2022/07/06 08:42:35;;;;;;;2.70;2.50;;;23.70;97.20;;;;;;1723933;28;20440;-71
2022/07/06 08:43:26;;;;;;;3.45;3.15;;;23.70;97.20;;;;;;1724979;28;20208;-71
2022/07/06 08:44:19;;;;;;;4.00;3.60;;;23.70;97.20;;;;;;1723796;28;20203;-70
2022/07/06 08:45:09;;;;;;;3.65;3.05;;;23.70;97.20;;;;;;1723497;28;20212;-71
2022/07/06 08:46:02;;;;;;;3.87;3.03;;;23.70;97.20;;;;;;1724845;28;20217;-71
2022/07/06 08:46:57;;;;;;;3.53;3.22;;;23.70;97.20;;;;;;1721945;28;20567;-71
2022/07/06 08:47:50;;;;;;;4.97;2.80;;;23.70;97.20;;;;;;1724534;28;20248;-71
2022/07/06 08:48:41;;;;;;;3.92;3.42;;;23.70;97.20;;;;;;1724768;28;20703;-70
2022/07/06 08:49:34;;;;;;;4.05;3.47;;;23.80;97.20;;;;;;1724594;28;20231;-71
2022/07/06 08:50:25;;;;;;;5.35;3.17;;;23.80;97.20;;;;;;1723630;28;20698;-71
2022/07/06 08:51:18;;;;;;;6.63;3.35;;;23.80;97.20;;;;;;1724416;28;20707;-71
2022/07/06 08:52:09;;;;;;;6.78;6.18;;;23.80;97.20;;;;;;1724763;28;20197;-71
2022/07/06 08:53:03;;;;;;;4.60;4.10;;;23.80;97.20;;;;;;1723600;28;20197;-71
2022/07/06 08:53:54;;;;;;;5.22;4.38;;;23.80;97.20;;;;;;1723491;28;20198;-71
2022/07/06 08:54:47;;;;;;;4.47;4.07;;;23.90;97.20;;;;;;1724840;28;20259;-70
2022/07/06 08:55:40;;;;;;;3.90;3.60;;;23.90;97.20;;;;;;1723585;28;20719;-71
2022/07/06 08:56:32;;;;;;;6.88;4.30;;;23.90;97.20;;;;;;1723387;28;20197;-71
2022/07/06 08:57:27;;;;;;;3.40;3.10;;;23.90;97.20;;;;;;1724813;28;20242;-70
2022/07/06 08:58:20;;;;;;;3.50;3.20;;;23.90;97.20;;;;;;1723495;28;20200;-71
2022/07/06 08:59:11;;;;;;;5.95;3.10;;;23.90;97.20;;;;;;1723575;28;20666;-71
2022/07/06 09:00:04;;;;;;;4.82;2.83;;;23.90;97.20;;;;;;1724809;28;20577;-71
2022/07/06 09:00:55;;;;;;;3.50;2.60;;;23.90;97.20;;;;;;1723911;28;20219;-71
2022/07/06 09:01:48;;;;;;;3.85;3.45;;;23.90;97.20;;;;;;1723357;28;20196;-71
2022/07/06 09:02:40;;;;;;;7.47;3.58;;;23.90;97.20;;;;;;1726988;28;20272;-74
2022/07/06 09:03:32;;;;;;;5.70;3.25;;;24.00;97.20;;;;;;1724474;28;20276;-73
2022/07/06 09:04:24;;;;;;;4.60;4.00;;;24.00;97.20;;;;;;1723527;28;20224;-71
2022/07/06 09:05:17;;;;;;;4.72;3.42;;;24.00;97.20;;;;;;1724068;28;20609;-71
2022/07/06 09:06:09;;;;;;;9.68;6.00;;;24.10;97.20;;;;;;1724694;28;20205;-71
2022/07/06 09:07:01;;;;;;;4.28;3.40;;;24.10;97.20;;;;;;1723147;28;20203;-71
2022/07/06 09:07:53;;;;;;;7.30;6.63;;;24.10;97.20;;;;;;1723581;28;20201;-71
2022/07/06 09:08:47;;;;;;;4.65;4.25;;;24.20;97.20;;;;;;1724767;28;20196;-70
2022/07/06 09:09:39;;;;;;;2.80;2.53;;;24.20;97.20;;;;;;1723674;28;20258;-70
2022/07/06 09:10:30;;;;;;;5.03;3.20;;;24.20;97.20;;;;;;1723407;28;20197;-71
2022/07/06 09:11:22;;;;;;;3.45;2.70;;;24.30;97.20;;;;;;1724694;28;20205;-74
2022/07/06 09:12:14;;;;;;;3.22;3.03;;;24.30;97.20;;;;;;1724243;28;20196;-71
2022/07/06 09:13:06;;;;;;;4.05;3.35;;;24.30;97.20;;;;;;1723337;28;20610;-71
2022/07/06 09:13:58;;;;;;;4.65;3.78;;;24.40;97.20;;;;;;1724287;28;20543;-71
2022/07/06 09:14:48;;;;;;;5.63;3.50;;;24.40;97.20;;;;;;1724642;28;20197;-71
2022/07/06 09:15:40;;;;;;;5.20;3.83;;;24.40;97.20;;;;;;1723163;28;20310;-71
2022/07/06 09:16:32;;;;;;;4.13;3.67;;;24.50;97.20;;;;;;1723457;28;20193;-71
2022/07/06 09:17:27;;;;;;;4.75;4.35;;;24.50;97.20;;;;;;1724311;28;20197;-71
2022/07/06 09:18:17;;;;;;;5.80;3.05;;;24.50;97.20;;;;;;1723528;28;20331;-71
2022/07/06 09:19:12;;;;;;;4.47;3.03;;;24.50;97.20;;;;;;1723299;28;20197;-70
2022/07/06 09:20:07;;;;;;;6.72;3.20;;;24.50;97.20;;;;;;1723365;28;20196;-71
2022/07/06 09:21:00;;;;;;;5.40;3.55;;;24.60;97.20;;;;;;1726292;28;20209;-71
2022/07/06 09:21:52;;;;;;;6.28;3.10;;;24.60;97.20;;;;;;1723281;28;20197;-71
2022/07/06 09:22:42;;;;;;;4.45;3.47;;;24.60;97.20;;;;;;1724582;28;20213;-71
2022/07/06 09:23:36;;;;;;;6.60;3.43;;;24.60;97.20;;;;;;1724617;28;20280;-71
2022/07/06 09:24:28;;;;;;;3.20;2.90;;;24.60;97.20;;;;;;1723286;28;20227;-70
2022/07/06 09:25:20;;;;;;;4.40;2.90;;;24.60;97.20;;;;;;1723960;28;20232;-71
2022/07/06 09:26:11;;;;;;;3.35;2.30;;;24.60;97.20;;;;;;1724603;28;20208;-70
2022/07/06 09:27:04;;;;;;;3.40;2.70;;;24.70;97.20;;;;;;1725176;28;20224;-71
2022/07/06 09:27:58;;;;;;;4.78;2.70;;;24.70;97.20;;;;;;1726993;28;20936;-70
2022/07/06 09:28:50;;;;;;;4.07;2.58;;;24.70;97.20;;;;;;1728317;28;20703;-70
2022/07/06 09:29:41;;;;;;;4.43;3.40;;;24.70;97.20;;;;;;1724559;28;20202;-73
2022/07/06 09:30:33;;;;;;;4.20;2.63;;;24.70;97.20;;;;;;1724468;28;20193;-71
2022/07/06 09:31:24;;;;;;;3.85;3.22;;;24.70;97.20;;;;;;1728305;28;20210;-72
2022/07/06 09:32:21;;;;;;;5.33;3.20;;;24.70;97.20;;;;;;1723188;28;20196;-73
2022/07/06 09:33:17;;;;;;;5.10;2.85;;;24.70;97.20;;;;;;1728348;28;20199;-73